sensor_id;sensor_type;location;lat;lon;timestamp;P1;durP1;ratioP1;P2;durP2;ratioP2
72105;SDS011;59975;47.646;18.318;2023-05-10T00:00:13;3.30;;;1.92;;
72105;SDS011;59975;47.646;18.318;2023-05-10T00:02:39;4.50;;;1.97;;
72105;SDS011;59975;47.646;18.318;2023-05-10T00:05:05;5.32;;;2.20;;
72105;SDS011;59975;47.646;18.318;2023-05-10T00:07:31;3.47;;;1.90;;
72105;SDS011;59975;47.646;18.318;2023-05-10T00:09:57;5.87;;;2.20;;
72105;SDS011;59975;47.646;18.318;2023-05-10T00:12:22;4.33;;;1.70;;
72105;SDS011;59975;47.646;18.318;2023-05-10T00:14:48;4.47;;;2.30;;
72105;SDS011;59975;47.646;18.318;2023-05-10T00:17:14;3.73;;;1.90;;
72105;SDS011;59975;47.646;18.318;2023-05-10T00:19:39;5.45;;;2.65;;
72105;SDS011;59975;47.646;18.318;2023-05-10T00:22:05;4.87;;;2.27;;
72105;SDS011;59975;47.646;18.318;2023-05-10T00:24:30;5.13;;;2.60;;
72105;SDS011;59975;47.646;18.318;2023-05-10T00:26:56;5.80;;;2.45;;
72105;SDS011;59975;47.646;18.318;2023-05-10T00:29:21;3.37;;;2.10;;
72105;SDS011;59975;47.646;18.318;2023-05-10T00:31:47;6.63;;;3.10;;
72105;SDS011;59975;47.646;18.318;2023-05-10T00:34:12;6.13;;;2.97;;
72105;SDS011;59975;47.646;18.318;2023-05-10T00:36:38;3.83;;;2.80;;
72105;SDS011;59975;47.646;18.318;2023-05-10T00:39:03;3.60;;;2.33;;
72105;SDS011;59975;47.646;18.318;2023-05-10T00:41:29;10.23;;;2.63;;
72105;SDS011;59975;47.646;18.318;2023-05-10T00:43:57;5.03;;;2.72;;
72105;SDS011;59975;47.646;18.318;2023-05-10T00:46:23;6.07;;;2.83;;
72105;SDS011;59975;47.646;18.318;2023-05-10T00:48:50;6.68;;;3.05;;
72105;SDS011;59975;47.646;18.318;2023-05-10T00:51:16;4.97;;;3.17;;
72105;SDS011;59975;47.646;18.318;2023-05-10T00:53:43;4.80;;;2.80;;
72105;SDS011;59975;47.646;18.318;2023-05-10T00:56:10;5.93;;;2.50;;
72105;SDS011;59975;47.646;18.318;2023-05-10T00:58:36;6.32;;;3.40;;
72105;SDS011;59975;47.646;18.318;2023-05-10T01:01:02;5.80;;;3.57;;
72105;SDS011;59975;47.646;18.318;2023-05-10T01:03:27;6.57;;;2.63;;
72105;SDS011;59975;47.646;18.318;2023-05-10T01:05:53;5.17;;;2.70;;
72105;SDS011;59975;47.646;18.318;2023-05-10T01:08:19;8.27;;;3.13;;
72105;SDS011;59975;47.646;18.318;2023-05-10T01:10:45;4.57;;;2.80;;
72105;SDS011;59975;47.646;18.318;2023-05-10T01:13:11;5.47;;;2.43;;
72105;SDS011;59975;47.646;18.318;2023-05-10T01:15:37;5.63;;;3.08;;
72105;SDS011;59975;47.646;18.318;2023-05-10T01:18:04;6.03;;;3.05;;
72105;SDS011;59975;47.646;18.318;2023-05-10T01:20:32;5.18;;;2.85;;
72105;SDS011;59975;47.646;18.318;2023-05-10T01:35:17;5.35;;;2.50;;
72105;SDS011;59975;47.646;18.318;2023-05-10T01:37:19;6.13;;;2.30;;
72105;SDS011;59975;47.646;18.318;2023-05-10T01:39:49;4.68;;;2.25;;
72105;SDS011;59975;47.646;18.318;2023-05-10T01:42:36;5.53;;;2.53;;
72105;SDS011;59975;47.646;18.318;2023-05-10T01:47:53;5.93;;;2.72;;
72105;SDS011;59975;47.646;18.318;2023-05-10T01:50:24;3.67;;;2.30;;
72105;SDS011;59975;47.646;18.318;2023-05-10T01:52:55;4.03;;;2.78;;
72105;SDS011;59975;47.646;18.318;2023-05-10T01:55:23;5.07;;;2.38;;
72105;SDS011;59975;47.646;18.318;2023-05-10T01:57:52;4.90;;;2.25;;
72105;SDS011;59975;47.646;18.318;2023-05-10T02:00:25;5.65;;;2.75;;
72105;SDS011;59975;47.646;18.318;2023-05-10T02:02:52;4.13;;;2.47;;
72105;SDS011;59975;47.646;18.318;2023-05-10T02:05:20;7.97;;;2.38;;
72105;SDS011;59975;47.646;18.318;2023-05-10T02:07:47;6.32;;;2.60;;
72105;SDS011;59975;47.646;18.318;2023-05-10T02:10:14;3.50;;;2.10;;
72105;SDS011;59975;47.646;18.318;2023-05-10T02:12:42;5.47;;;1.85;;
72105;SDS011;59975;47.646;18.318;2023-05-10T02:15:10;4.67;;;2.40;;
72105;SDS011;59975;47.646;18.318;2023-05-10T02:17:37;4.03;;;2.40;;
72105;SDS011;59975;47.646;18.318;2023-05-10T02:20:05;4.55;;;2.63;;
72105;SDS011;59975;47.646;18.318;2023-05-10T02:22:32;6.45;;;2.55;;
72105;SDS011;59975;47.646;18.318;2023-05-10T02:25:00;3.58;;;2.28;;
72105;SDS011;59975;47.646;18.318;2023-05-10T02:27:27;4.97;;;2.60;;
72105;SDS011;59975;47.646;18.318;2023-05-10T02:29:53;3.10;;;1.98;;
72105;SDS011;59975;47.646;18.318;2023-05-10T02:32:20;6.00;;;3.08;;
72105;SDS011;59975;47.646;18.318;2023-05-10T02:34:47;5.57;;;2.72;;
72105;SDS011;59975;47.646;18.318;2023-05-10T02:37:17;4.78;;;2.53;;
72105;SDS011;59975;47.646;18.318;2023-05-10T02:39:48;5.50;;;3.10;;
72105;SDS011;59975;47.646;18.318;2023-05-10T02:42:19;5.55;;;2.50;;
72105;SDS011;59975;47.646;18.318;2023-05-10T02:44:48;5.68;;;3.28;;
72105;SDS011;59975;47.646;18.318;2023-05-10T02:47:18;6.43;;;3.38;;
72105;SDS011;59975;47.646;18.318;2023-05-10T02:49:44;4.63;;;2.72;;
72105;SDS011;59975;47.646;18.318;2023-05-10T02:52:09;5.63;;;2.77;;
72105;SDS011;59975;47.646;18.318;2023-05-10T02:54:44;5.68;;;2.85;;
72105;SDS011;59975;47.646;18.318;2023-05-10T02:57:15;6.97;;;3.30;;
72105;SDS011;59975;47.646;18.318;2023-05-10T02:59:45;6.57;;;3.55;;
72105;SDS011;59975;47.646;18.318;2023-05-10T03:02:14;5.53;;;3.60;;
72105;SDS011;59975;47.646;18.318;2023-05-10T03:04:39;6.88;;;3.72;;
72105;SDS011;59975;47.646;18.318;2023-05-10T03:07:05;4.97;;;3.57;;
72105;SDS011;59975;47.646;18.318;2023-05-10T03:09:31;8.48;;;4.07;;
72105;SDS011;59975;47.646;18.318;2023-05-10T03:15:16;7.03;;;4.32;;
72105;SDS011;59975;47.646;18.318;2023-05-10T03:20:25;9.30;;;3.80;;
72105;SDS011;59975;47.646;18.318;2023-05-10T03:23:00;8.88;;;3.95;;
72105;SDS011;59975;47.646;18.318;2023-05-10T03:25:32;9.80;;;4.47;;
72105;SDS011;59975;47.646;18.318;2023-05-10T03:27:59;7.55;;;3.80;;
72105;SDS011;59975;47.646;18.318;2023-05-10T03:30:26;7.17;;;4.00;;
72105;SDS011;59975;47.646;18.318;2023-05-10T03:32:53;6.78;;;3.83;;
72105;SDS011;59975;47.646;18.318;2023-05-10T03:35:19;8.55;;;4.47;;
72105;SDS011;59975;47.646;18.318;2023-05-10T03:37:44;9.20;;;4.33;;
72105;SDS011;59975;47.646;18.318;2023-05-10T03:40:10;10.00;;;4.43;;
72105;SDS011;59975;47.646;18.318;2023-05-10T03:42:36;8.68;;;4.70;;
72105;SDS011;59975;47.646;18.318;2023-05-10T03:45:02;9.50;;;5.25;;
72105;SDS011;59975;47.646;18.318;2023-05-10T03:47:27;10.10;;;5.53;;
72105;SDS011;59975;47.646;18.318;2023-05-10T03:49:54;11.90;;;6.03;;
72105;SDS011;59975;47.646;18.318;2023-05-10T03:52:20;11.70;;;5.90;;
72105;SDS011;59975;47.646;18.318;2023-05-10T03:54:45;13.82;;;6.75;;
72105;SDS011;59975;47.646;18.318;2023-05-10T03:57:11;12.00;;;5.83;;
72105;SDS011;59975;47.646;18.318;2023-05-10T03:59:36;13.17;;;6.70;;
72105;SDS011;59975;47.646;18.318;2023-05-10T04:02:02;9.30;;;6.10;;
72105;SDS011;59975;47.646;18.318;2023-05-10T04:04:27;10.00;;;5.50;;
72105;SDS011;59975;47.646;18.318;2023-05-10T04:06:53;9.60;;;4.90;;
72105;SDS011;59975;47.646;18.318;2023-05-10T04:09:18;9.35;;;5.57;;
72105;SDS011;59975;47.646;18.318;2023-05-10T04:11:44;11.03;;;5.80;;
72105;SDS011;59975;47.646;18.318;2023-05-10T04:14:09;11.83;;;5.30;;
72105;SDS011;59975;47.646;18.318;2023-05-10T04:16:35;9.05;;;5.03;;
72105;SDS011;59975;47.646;18.318;2023-05-10T04:19:00;10.00;;;4.82;;
72105;SDS011;59975;47.646;18.318;2023-05-10T04:21:26;8.47;;;4.57;;
72105;SDS011;59975;47.646;18.318;2023-05-10T04:23:51;7.70;;;4.57;;
72105;SDS011;59975;47.646;18.318;2023-05-10T04:26:17;8.93;;;4.82;;
72105;SDS011;59975;47.646;18.318;2023-05-10T04:28:42;9.27;;;5.17;;
72105;SDS011;59975;47.646;18.318;2023-05-10T04:31:08;8.53;;;4.63;;
72105;SDS011;59975;47.646;18.318;2023-05-10T04:33:35;7.85;;;4.50;;
72105;SDS011;59975;47.646;18.318;2023-05-10T04:36:01;6.78;;;4.38;;
72105;SDS011;59975;47.646;18.318;2023-05-10T04:38:27;11.55;;;4.35;;
72105;SDS011;59975;47.646;18.318;2023-05-10T04:40:53;7.35;;;4.32;;
72105;SDS011;59975;47.646;18.318;2023-05-10T04:43:19;6.50;;;3.90;;
72105;SDS011;59975;47.646;18.318;2023-05-10T04:45:45;8.48;;;4.90;;
72105;SDS011;59975;47.646;18.318;2023-05-10T04:48:11;6.57;;;3.90;;
72105;SDS011;59975;47.646;18.318;2023-05-10T04:50:36;8.90;;;4.70;;
72105;SDS011;59975;47.646;18.318;2023-05-10T04:53:02;6.75;;;3.78;;
72105;SDS011;59975;47.646;18.318;2023-05-10T04:55:27;6.37;;;3.63;;
72105;SDS011;59975;47.646;18.318;2023-05-10T04:57:53;12.77;;;4.18;;
72105;SDS011;59975;47.646;18.318;2023-05-10T05:00:21;7.37;;;4.83;;
72105;SDS011;59975;47.646;18.318;2023-05-10T05:02:47;8.82;;;3.75;;
72105;SDS011;59975;47.646;18.318;2023-05-10T05:05:13;6.17;;;3.90;;
72105;SDS011;59975;47.646;18.318;2023-05-10T05:07:38;9.63;;;4.15;;
72105;SDS011;59975;47.646;18.318;2023-05-10T05:10:05;8.57;;;4.10;;
72105;SDS011;59975;47.646;18.318;2023-05-10T05:12:32;7.90;;;4.28;;
72105;SDS011;59975;47.646;18.318;2023-05-10T05:14:57;7.10;;;4.40;;
72105;SDS011;59975;47.646;18.318;2023-05-10T05:17:23;7.03;;;3.83;;
72105;SDS011;59975;47.646;18.318;2023-05-10T05:19:48;7.40;;;3.53;;
72105;SDS011;59975;47.646;18.318;2023-05-10T05:22:14;9.50;;;4.23;;
72105;SDS011;59975;47.646;18.318;2023-05-10T05:24:39;6.05;;;3.92;;
72105;SDS011;59975;47.646;18.318;2023-05-10T05:27:05;6.72;;;3.80;;
72105;SDS011;59975;47.646;18.318;2023-05-10T05:29:31;8.03;;;4.07;;
72105;SDS011;59975;47.646;18.318;2023-05-10T05:31:57;6.38;;;3.80;;
72105;SDS011;59975;47.646;18.318;2023-05-10T05:34:22;6.03;;;3.70;;
72105;SDS011;59975;47.646;18.318;2023-05-10T05:36:49;9.38;;;4.57;;
72105;SDS011;59975;47.646;18.318;2023-05-10T05:39:15;7.47;;;4.30;;
72105;SDS011;59975;47.646;18.318;2023-05-10T05:41:40;8.63;;;4.50;;
72105;SDS011;59975;47.646;18.318;2023-05-10T05:44:06;9.60;;;4.43;;
72105;SDS011;59975;47.646;18.318;2023-05-10T05:46:31;9.57;;;5.13;;
72105;SDS011;59975;47.646;18.318;2023-05-10T05:48:57;10.30;;;4.70;;
72105;SDS011;59975;47.646;18.318;2023-05-10T05:51:22;9.27;;;4.22;;
72105;SDS011;59975;47.646;18.318;2023-05-10T05:53:48;6.93;;;4.10;;
72105;SDS011;59975;47.646;18.318;2023-05-10T05:56:14;8.52;;;4.82;;
72105;SDS011;59975;47.646;18.318;2023-05-10T05:58:40;9.40;;;5.10;;
72105;SDS011;59975;47.646;18.318;2023-05-10T06:01:05;7.05;;;4.80;;
72105;SDS011;59975;47.646;18.318;2023-05-10T06:03:40;9.93;;;4.53;;
